This is the latest recevied weather packets stored in our database for station/object KB0RPJ. If no packets are shown the sender has not sent any weather packets the latest 1 day(s).
| Time | Temp. | Humidity | Pressure | Rain* | Wind** | Luminosity | Snow |
|---|---|---|---|---|---|---|---|
| 1778030105 | 12.78° C | 61% | 1011.3 hPa | 0 mm | 0 m/s | 0 W/m² | - |
| 1778029805 | 12.78° C | 61% | 1011.2 hPa | 0 mm | 0 m/s | 2 W/m² | - |
| 1778029504 | 12.78° C | 60% | 1011.1 hPa | 0 mm | 0.89 m/s, 335° | 3 W/m² | - |
| 1778029206 | 12.78° C | 59% | 1011.1 hPa | 0 mm | 0.45 m/s, 334° | 5 W/m² | - |
| 1778028905 | 12.78° C | 58% | 1011.1 hPa | 0 mm | 0 m/s | 7 W/m² | - |
| 1778028607 | 12.78° C | 58% | 1010.9 hPa | 0 mm | 0 m/s | 11 W/m² | - |
| 1778028305 | 12.78° C | 58% | 1010.8 hPa | 0 mm | 0 m/s | 12 W/m² | - |
| 1778028004 | 13.33° C | 58% | 1010.7 hPa | 0 mm | 0 m/s | 14 W/m² | - |
| 1778027705 | 13.33° C | 57% | 1010.7 hPa | 0 mm | 0 m/s | 15 W/m² | - |
| 1778027404 | 13.33° C | 56% | 1010.5 hPa | 0 mm | 0 m/s | 15 W/m² | - |
| 1778027105 | 13.33° C | 56% | 1010.5 hPa | 0 mm | 0 m/s | 19 W/m² | - |
| 1778026805 | 13.33° C | 55% | 1010.7 hPa | 0 mm | 0 m/s | 18 W/m² | - |
| 1778026504 | 13.33° C | 56% | 1010.8 hPa | 0 mm | 0 m/s | 17 W/m² | - |
| 1778026205 | 13.33° C | 56% | 1010.6 hPa | 0 mm | 0 m/s | 34 W/m² | - |
| 1778025904 | 13.33° C | 57% | 1010.6 hPa | 0 mm | 0 m/s | 34 W/m² | - |
| 1778025606 | 13.33° C | 55% | 1010.8 hPa | 0 mm | 0.45 m/s, 335° | 24 W/m² | - |
| 1778025319 | 13.33° C | 54% | 1010.8 hPa | 0 mm | 0.45 m/s, 335° | 25 W/m² | - |
| 1778025005 | 13.33° C | 52% | 1010.9 hPa | 0 mm | 0.89 m/s, 334° | 24 W/m² | - |
| 1778024708 | 13.89° C | 52% | 1010.7 hPa | 0 mm | 0 m/s | 26 W/m² | - |
| 1778024405 | 13.89° C | 51% | 1010.5 hPa | 0 mm | 0 m/s | 35 W/m² | - |
| 1778024105 | 13.89° C | 52% | 1010.4 hPa | 0 mm | 0.45 m/s, 334° | 50 W/m² | - |
| 1778023805 | 13.33° C | 51% | 1010.4 hPa | 0 mm | 0.45 m/s, 335° | 73 W/m² | - |
| 1778023504 | 13.33° C | 52% | 1010.4 hPa | 0 mm | 0 m/s | 44 W/m² | - |
| 1778023205 | 13.33° C | 53% | 1010.6 hPa | 0 mm | 0 m/s | 34 W/m² | - |
| 1778022907 | 13.33° C | 52% | 1010.5 hPa | 0 mm | 0 m/s | 52 W/m² | - |
* Rain latest hour (hover to see other rain measurements)
** Current wind speed in m/s (hover to see current wind gust speed)